Time;durP1;ratioP1;P1;durP2;ratioP2;P2;SDS_P1;SDS_P2;PMS_P1;PMS_P2;Temp;Humidity;BMP_temperature;BMP_pressure;BME280_temperature;BME280_humidity;BME280_pressure;Samples;Min_cycle;Max_cycle;Signal;HPM_P1;HPM_P2
2023/05/22 00:00:16;;;;;;;11.45;6.75;;;18.10;77.90;;;;;;5050097;28;20025;-72
2023/05/22 00:02:42;;;;;;;9.40;6.45;;;18.10;77.30;;;;;;5049494;28;20125;-72
2023/05/22 00:05:09;;;;;;;11.65;6.47;;;18.10;77.10;;;;;;5047992;28;20115;-72
2023/05/22 00:07:35;;;;;;;9.55;6.50;;;18.10;77.60;;;;;;5035967;28;20021;-72
2023/05/22 00:10:01;;;;;;;9.02;6.55;;;18.00;77.90;;;;;;5046402;28;20074;-72
2023/05/22 00:12:27;;;;;;;8.65;6.85;;;18.00;78.00;;;;;;5047115;28;20031;-72
2023/05/22 00:14:52;;;;;;;9.30;6.43;;;17.90;78.20;;;;;;5046670;28;20036;-72
2023/05/22 00:17:19;;;;;;;11.15;6.65;;;18.00;78.30;;;;;;5042613;28;20033;-72
2023/05/22 00:19:45;;;;;;;12.70;6.60;;;17.90;78.10;;;;;;5046012;28;20441;-72
2023/05/22 00:22:10;;;;;;;10.75;7.00;;;17.80;78.50;;;;;;5047221;28;20036;-72
2023/05/22 00:24:36;;;;;;;12.45;6.57;;;17.70;78.60;;;;;;5052938;28;20041;-72
2023/05/22 00:27:01;;;;;;;12.20;7.20;;;17.60;79.10;;;;;;5039506;28;20029;-72
2023/05/22 00:29:27;;;;;;;11.10;7.07;;;17.70;78.80;;;;;;5041454;28;20020;-72
2023/05/22 00:31:52;;;;;;;11.25;6.70;;;17.60;78.70;;;;;;5035472;28;20361;-72
2023/05/22 00:34:18;;;;;;;9.65;6.45;;;17.60;78.80;;;;;;5048709;28;20029;-72
2023/05/22 00:36:43;;;;;;;9.18;6.47;;;17.50;79.30;;;;;;5045492;28;20496;-72
2023/05/22 00:39:09;;;;;;;12.00;6.53;;;17.50;79.20;;;;;;5046251;28;20099;-72
2023/05/22 00:41:34;;;;;;;9.10;6.72;;;17.50;79.20;;;;;;5049768;28;20021;-72
2023/05/22 00:44:01;;;;;;;10.50;6.38;;;17.50;79.40;;;;;;5045079;28;20037;-72
2023/05/22 00:46:27;;;;;;;11.05;6.97;;;17.50;79.10;;;;;;5049979;28;20389;-72
2023/05/22 00:48:53;;;;;;;8.65;6.55;;;17.50;78.90;;;;;;5043912;28;20107;-72
2023/05/22 00:51:20;;;;;;;7.65;6.28;;;17.30;79.50;;;;;;5050811;28;20457;-72
2023/05/22 00:53:46;;;;;;;12.48;7.15;;;17.30;79.40;;;;;;5049446;28;20029;-72
2023/05/22 00:56:14;;;;;;;10.95;6.47;;;17.40;79.30;;;;;;5048770;28;20423;-72
2023/05/22 00:58:40;;;;;;;10.68;6.47;;;17.30;79.20;;;;;;5047710;28;20031;-72
2023/05/22 01:01:08;;;;;;;10.02;6.35;;;17.30;79.60;;;;;;5048617;28;20025;-72
2023/05/22 01:03:36;;;;;;;8.85;6.72;;;17.20;79.60;;;;;;5047022;28;20020;-72
2023/05/22 01:06:02;;;;;;;10.02;6.40;;;17.10;79.90;;;;;;5039572;28;20420;-72
2023/05/22 01:08:28;;;;;;;10.57;6.90;;;17.10;79.90;;;;;;5049920;28;20045;-72
2023/05/22 01:11:00;;;;;;;7.68;6.25;;;17.00;80.50;;;;;;5043167;28;20528;-72
2023/05/22 01:13:40;;;;;;;9.57;7.32;;;17.00;80.80;;;;;;5050673;28;20032;-72
2023/05/22 01:16:11;;;;;;;9.73;6.25;;;16.90;80.90;;;;;;5043459;28;20444;-72
2023/05/22 01:18:54;;;;;;;8.60;6.47;;;16.80;81.30;;;;;;5044698;28;20112;-72
2023/05/22 01:21:48;;;;;;;17.80;7.30;;;16.90;81.10;;;;;;5034146;28;20155;-72
2023/05/22 01:24:55;;;;;;;8.20;7.03;;;16.90;81.00;;;;;;5035033;28;20480;-72
2023/05/22 01:27:34;;;;;;;9.40;7.10;;;16.80;81.50;;;;;;5039113;28;20377;-72
2023/05/22 01:30:05;;;;;;;11.18;7.18;;;16.70;82.00;;;;;;5048672;28;20479;-72
2023/05/22 01:32:33;;;;;;;9.40;7.28;;;16.70;82.20;;;;;;5043411;28;20044;-72
2023/05/22 01:35:02;;;;;;;10.20;7.47;;;16.60;82.20;;;;;;5046829;28;20028;-72
2023/05/22 01:37:28;;;;;;;11.50;7.38;;;16.60;82.40;;;;;;5040508;28;20029;-72
2023/05/22 01:39:54;;;;;;;9.48;7.32;;;16.50;82.50;;;;;;5044962;28;20158;-72
2023/05/22 01:42:20;;;;;;;11.10;7.97;;;16.50;82.70;;;;;;5041962;28;20029;-72
2023/05/22 01:44:47;;;;;;;10.38;7.45;;;16.50;82.60;;;;;;5045521;28;20098;-72
2023/05/22 01:47:13;;;;;;;10.40;7.50;;;16.50;82.60;;;;;;5053314;28;20033;-72
2023/05/22 01:49:39;;;;;;;10.85;7.28;;;16.50;82.80;;;;;;5058249;28;20040;-72
2023/05/22 01:52:25;;;;;;;8.40;7.07;;;16.50;82.60;;;;;;5051644;28;20434;-72
2023/05/22 01:54:58;;;;;;;10.13;7.32;;;16.50;82.60;;;;;;5054027;28;20358;-72
2023/05/22 01:57:32;;;;;;;11.35;7.22;;;16.40;82.60;;;;;;5042070;28;20040;-72
2023/05/22 02:00:08;;;;;;;8.93;7.15;;;16.50;82.20;;;;;;5051089;28;20024;-72
2023/05/22 02:02:36;;;;;;;9.57;7.50;;;16.40;82.20;;;;;;5047078;28;20055;-72
2023/05/22 02:05:04;;;;;;;11.25;7.75;;;16.50;82.10;;;;;;5054283;28;20039;-72
2023/05/22 02:07:32;;;;;;;10.73;7.32;;;16.40;82.00;;;;;;5051958;28;20021;-72
2023/05/22 02:09:59;;;;;;;11.50;7.35;;;16.30;82.30;;;;;;5047449;28;20022;-72
2023/05/22 02:12:25;;;;;;;12.25;7.22;;;16.30;82.60;;;;;;5055414;28;20044;-72
2023/05/22 02:14:51;;;;;;;9.23;6.68;;;16.40;82.20;;;;;;5048169;28;20032;-72
2023/05/22 02:17:17;;;;;;;10.57;6.90;;;16.30;82.10;;;;;;5046949;28;20037;-72
2023/05/22 02:19:43;;;;;;;9.50;6.90;;;16.30;82.40;;;;;;5054496;28;20361;-72
2023/05/22 02:22:12;;;;;;;11.30;7.43;;;16.40;81.90;;;;;;5049524;28;22320;-72
2023/05/22 02:24:40;;;;;;;10.70;6.97;;;16.40;81.80;;;;;;5067270;28;20238;-72
2023/05/22 02:27:06;;;;;;;13.38;6.88;;;16.40;81.50;;;;;;5051868;28;20876;-72
2023/05/22 02:29:31;;;;;;;9.73;7.10;;;16.40;81.60;;;;;;5053699;28;20052;-72
2023/05/22 02:31:57;;;;;;;10.27;7.80;;;16.40;81.40;;;;;;5045471;28;20357;-72
2023/05/22 02:34:22;;;;;;;10.63;7.43;;;16.40;81.60;;;;;;5050580;28;20029;-72
2023/05/22 02:36:49;;;;;;;10.80;6.80;;;16.40;81.70;;;;;;5053620;28;20040;-72
2023/05/22 02:39:16;;;;;;;10.68;6.85;;;16.40;81.10;;;;;;5045862;28;20016;-72
2023/05/22 02:41:42;;;;;;;9.75;7.20;;;16.40;81.10;;;;;;5052085;28;20025;-72
2023/05/22 02:44:07;;;;;;;9.80;6.70;;;16.50;80.60;;;;;;5052682;28;20025;-72
2023/05/22 02:46:33;;;;;;;8.18;6.65;;;16.50;80.70;;;;;;5052114;28;20044;-72
2023/05/22 02:48:58;;;;;;;10.30;6.68;;;16.40;80.90;;;;;;5050322;28;20075;-72
2023/05/22 02:51:23;;;;;;;9.02;6.50;;;16.40;80.70;;;;;;5050885;28;20025;-72
2023/05/22 02:53:49;;;;;;;9.00;6.45;;;16.30;80.90;;;;;;5051570;28;20087;-72
2023/05/22 02:56:14;;;;;;;11.73;6.75;;;16.50;80.00;;;;;;5045829;28;20036;-72
2023/05/22 02:58:40;;;;;;;9.75;6.90;;;16.50;80.10;;;;;;5046946;28;20483;-72
2023/05/22 03:01:06;;;;;;;8.55;6.38;;;16.50;79.80;;;;;;5052554;28;20032;-72
2023/05/22 03:03:32;;;;;;;10.30;6.22;;;16.60;79.10;;;;;;5046145;28;20079;-72
2023/05/22 03:06:00;;;;;;;8.75;6.75;;;16.50;79.40;;;;;;5046280;28;20037;-72
2023/05/22 03:08:27;;;;;;;11.82;5.93;;;16.50;79.40;;;;;;5053364;28;20044;-72
2023/05/22 03:10:52;;;;;;;7.63;6.03;;;16.50;78.90;;;;;;5044202;28;20448;-72
2023/05/22 03:13:18;;;;;;;8.70;6.72;;;16.50;79.60;;;;;;5056653;28;20037;-72
2023/05/22 03:15:43;;;;;;;9.85;6.40;;;16.50;79.20;;;;;;5046664;28;20388;-72
2023/05/22 03:18:09;;;;;;;12.02;6.30;;;16.50;79.20;;;;;;5048344;28;20039;-72
2023/05/22 03:20:34;;;;;;;10.18;6.68;;;16.50;78.70;;;;;;5049934;28;20033;-72
2023/05/22 03:23:00;;;;;;;9.30;6.53;;;16.50;78.80;;;;;;5048411;28;20100;-72
2023/05/22 03:25:25;;;;;;;8.50;5.95;;;16.50;78.90;;;;;;5043755;28;20047;-72
2023/05/22 03:27:51;;;;;;;10.55;6.38;;;16.50;79.10;;;;;;5048798;28;20040;-72
2023/05/22 03:30:16;;;;;;;11.88;6.38;;;16.50;78.70;;;;;;5051379;28;20120;-72
2023/05/22 03:32:42;;;;;;;9.00;6.65;;;16.60;78.20;;;;;;5046358;28;20392;-72
2023/05/22 03:35:08;;;;;;;8.82;6.28;;;16.60;78.20;;;;;;5043494;28;20025;-72
2023/05/22 03:37:33;;;;;;;9.45;5.90;;;16.60;78.30;;;;;;5035803;28;20100;-72
2023/05/22 03:39:59;;;;;;;10.18;6.30;;;16.70;77.80;;;;;;5043680;28;20128;-72
2023/05/22 03:42:24;;;;;;;9.55;5.53;;;16.80;77.40;;;;;;5050053;28;20460;-72
2023/05/22 03:44:50;;;;;;;8.60;6.32;;;16.90;76.60;;;;;;5052100;28;20032;-72
2023/05/22 03:47:15;;;;;;;6.95;5.45;;;16.80;77.40;;;;;;5052322;28;20045;-72
2023/05/22 03:49:41;;;;;;;7.72;5.53;;;16.80;77.20;;;;;;5048599;28;20477;-72
2023/05/22 03:52:09;;;;;;;7.97;5.47;;;16.90;76.80;;;;;;5048587;28;20103;-72
2023/05/22 03:54:35;;;;;;;8.55;5.43;;;16.90;76.20;;;;;;5050708;28;20116;-72
2023/05/22 03:57:00;;;;;;;7.88;5.68;;;17.00;76.00;;;;;;5036963;28;20514;-72
2023/05/22 03:59:25;;;;;;;9.45;5.90;;;17.00;76.20;;;;;;5056600;28;20051;-72
2023/05/22 04:01:51;;;;;;;8.73;5.72;;;17.00;75.70;;;;;;5046742;28;20078;-72
2023/05/22 04:04:16;;;;;;;9.77;5.85;;;17.10;75.40;;;;;;5056865;28;20372;-72
2023/05/22 04:06:42;;;;;;;10.52;5.85;;;17.20;74.80;;;;;;5040233;28;20041;-72
2023/05/22 04:09:12;;;;;;;8.77;5.85;;;17.20;75.10;;;;;;5043324;28;20017;-72
2023/05/22 04:11:41;;;;;;;11.63;5.80;;;17.10;75.40;;;;;;5045990;28;20041;-72
2023/05/22 04:14:06;;;;;;;8.25;5.60;;;17.10;75.40;;;;;;5045336;28;20453;-72
2023/05/22 04:16:32;;;;;;;7.80;5.35;;;17.10;75.50;;;;;;5047777;28;20151;-72
2023/05/22 04:19:00;;;;;;;11.75;5.63;;;17.10;75.10;;;;;;5057550;28;20476;-73
2023/05/22 04:21:27;;;;;;;7.97;5.32;;;17.20;74.80;;;;;;5060992;28;20151;-73
2023/05/22 04:23:52;;;;;;;8.02;5.28;;;17.20;75.60;;;;;;5052023;28;20017;-72
2023/05/22 04:26:19;;;;;;;8.48;5.38;;;17.20;75.00;;;;;;5043906;28;20059;-72
2023/05/22 04:28:48;;;;;;;9.40;6.63;;;17.20;74.90;;;;;;5041688;28;20021;-71
2023/05/22 04:31:13;;;;;;;7.85;5.13;;;17.30;74.70;;;;;;5047081;28;20071;-73
2023/05/22 04:33:39;;;;;;;8.35;5.63;;;17.30;74.40;;;;;;5041368;28;20476;-73
2023/05/22 04:36:05;;;;;;;11.10;5.90;;;17.30;74.30;;;;;;5048079;28;20535;-73
2023/05/22 04:38:36;;;;;;;7.82;5.50;;;17.30;74.20;;;;;;5045171;28;20021;-73
2023/05/22 04:41:04;;;;;;;9.20;5.33;;;17.40;74.20;;;;;;5045603;28;20458;-73
2023/05/22 04:43:31;;;;;;;9.65;5.47;;;17.40;73.30;;;;;;5051075;28;20175;-73
2023/05/22 04:45:56;;;;;;;8.50;5.53;;;17.40;74.40;;;;;;5044188;28;20029;-73
2023/05/22 04:48:22;;;;;;;9.55;5.03;;;17.40;74.50;;;;;;5051446;28;20029;-73
2023/05/22 04:50:50;;;;;;;7.97;5.30;;;17.50;74.30;;;;;;5045319;28;20065;-73
2023/05/22 04:53:16;;;;;;;9.73;5.47;;;17.50;73.90;;;;;;5063133;28;20160;-72
2023/05/22 04:55:43;;;;;;;8.98;5.28;;;17.60;74.20;;;;;;5056056;28;20028;-73
2023/05/22 04:58:09;;;;;;;9.48;5.30;;;17.50;73.90;;;;;;5045675;28;20482;-72
2023/05/22 05:00:34;;;;;;;8.05;5.40;;;17.60;74.30;;;;;;5036734;28;20021;-72
2023/05/22 05:03:00;;;;;;;10.23;5.20;;;17.60;72.90;;;;;;5041817;28;20031;-72
2023/05/22 05:05:25;;;;;;;8.15;5.10;;;17.60;72.50;;;;;;5040779;28;20160;-72
2023/05/22 05:07:52;;;;;;;10.32;5.35;;;17.70;72.80;;;;;;5034229;28;20033;-72
2023/05/22 05:10:18;;;;;;;10.45;5.15;;;17.70;73.50;;;;;;5038805;28;20021;-72
2023/05/22 05:12:43;;;;;;;8.68;5.38;;;17.70;73.10;;;;;;5048481;28;20032;-73
2023/05/22 05:15:09;;;;;;;8.13;5.25;;;17.70;72.60;;;;;;5042454;28;20024;-73
2023/05/22 05:17:34;;;;;;;7.85;5.18;;;17.80;73.60;;;;;;5045744;28;20044;-72
2023/05/22 05:20:00;;;;;;;7.43;5.30;;;17.80;72.40;;;;;;5046823;28;20039;-72
2023/05/22 05:22:25;;;;;;;7.85;5.15;;;17.90;74.00;;;;;;5040903;28;20029;-75
2023/05/22 05:24:51;;;;;;;9.15;4.88;;;17.80;71.90;;;;;;5061442;28;20048;-74
2023/05/22 05:27:16;;;;;;;8.10;5.47;;;17.90;72.50;;;;;;5042370;28;20456;-72
2023/05/22 05:29:42;;;;;;;7.75;4.80;;;17.80;72.00;;;;;;5054649;28;20032;-73
2023/05/22 05:32:10;;;;;;;8.50;4.93;;;18.00;71.30;;;;;;5042271;28;20378;-72
2023/05/22 05:34:35;;;;;;;9.02;5.18;;;17.90;71.70;;;;;;5044021;28;20033;-73
2023/05/22 05:37:01;;;;;;;9.55;5.05;;;18.00;72.90;;;;;;5044369;28;20036;-72
2023/05/22 05:39:27;;;;;;;10.18;4.72;;;18.00;71.00;;;;;;5041940;28;20025;-74
2023/05/22 05:41:52;;;;;;;6.57;4.70;;;18.10;71.40;;;;;;5045652;28;20083;-72
2023/05/22 05:44:18;;;;;;;6.38;4.50;;;18.10;70.70;;;;;;5044931;28;20025;-72
2023/05/22 05:46:43;;;;;;;8.95;5.07;;;18.10;70.80;;;;;;5035763;28;20037;-73
2023/05/22 05:49:09;;;;;;;6.00;4.45;;;18.30;70.80;;;;;;5044852;28;20037;-73
2023/05/22 05:51:38;;;;;;;7.32;4.53;;;18.30;70.10;;;;;;5040820;28;20461;-73
2023/05/22 05:54:04;;;;;;;7.13;4.20;;;18.40;69.90;;;;;;5045993;28;20044;-73
2023/05/22 05:56:29;;;;;;;6.78;4.40;;;18.40;70.00;;;;;;5051166;28;20032;-73
2023/05/22 05:58:55;;;;;;;6.20;4.25;;;18.50;69.00;;;;;;5046059;28;20394;-72
2023/05/22 06:01:23;;;;;;;7.50;4.43;;;18.60;70.40;;;;;;5048396;28;20021;-72
2023/05/22 06:03:49;;;;;;;8.32;4.57;;;18.80;71.70;;;;;;5046699;28;20024;-73
2023/05/22 06:06:16;;;;;;;8.00;4.78;;;18.60;68.60;;;;;;5044832;28;20029;-72
2023/05/22 06:08:42;;;;;;;6.10;4.50;;;18.80;69.40;;;;;;5049721;28;20025;-73
2023/05/22 06:11:07;;;;;;;6.32;4.13;;;18.80;68.60;;;;;;5037370;28;20021;-73
2023/05/22 06:13:33;;;;;;;6.82;4.47;;;19.00;68.80;;;;;;5034391;28;20044;-73
2023/05/22 06:15:58;;;;;;;7.45;4.50;;;19.00;68.70;;;;;;5037655;28;20090;-73
2023/05/22 06:18:24;;;;;;;7.65;4.05;;;19.10;67.80;;;;;;5039009;28;20021;-72
2023/05/22 06:20:50;;;;;;;6.20;4.30;;;19.30;66.30;;;;;;5039348;28;20024;-72
2023/05/22 06:23:16;;;;;;;8.07;3.92;;;19.50;66.80;;;;;;5042704;28;20040;-73
2023/05/22 06:25:42;;;;;;;10.30;3.58;;;19.60;68.00;;;;;;5040479;28;20045;-73
2023/05/22 06:28:07;;;;;;;5.82;3.95;;;19.60;65.90;;;;;;5045863;28;20020;-73
2023/05/22 06:30:34;;;;;;;6.93;4.07;;;19.80;68.10;;;;;;5044213;28;20025;-73
2023/05/22 06:32:59;;;;;;;6.93;3.72;;;19.90;63.70;;;;;;5044854;28;20094;-73
2023/05/22 06:35:25;;;;;;;5.75;3.63;;;20.10;65.70;;;;;;5051525;28;20041;-72
2023/05/22 06:37:51;;;;;;;7.35;3.92;;;20.20;64.50;;;;;;5044747;28;20048;-73
2023/05/22 06:40:16;;;;;;;5.95;3.80;;;20.40;63.40;;;;;;5046376;28;20028;-73
2023/05/22 06:42:42;;;;;;;6.22;3.60;;;20.60;63.90;;;;;;5048748;28;20412;-73
2023/05/22 06:45:08;;;;;;;5.25;3.65;;;20.80;61.40;;;;;;5046987;28;20449;-72
2023/05/22 06:47:34;;;;;;;6.70;3.90;;;21.00;62.20;;;;;;5047235;28;20074;-72
2023/05/22 06:50:00;;;;;;;8.38;3.45;;;21.20;63.00;;;;;;5051135;28;20138;-73
2023/05/22 06:52:25;;;;;;;5.63;3.67;;;21.30;61.00;;;;;;5050504;28;20376;-73
2023/05/22 06:54:51;;;;;;;7.15;3.35;;;21.50;61.80;;;;;;5044902;28;20462;-73
2023/05/22 06:57:16;;;;;;;5.88;3.03;;;21.40;59.60;;;;;;5042155;28;20036;-73
2023/05/22 06:59:42;;;;;;;4.63;2.90;;;21.20;59.70;;;;;;5044384;28;20063;-73
2023/05/22 07:02:07;;;;;;;7.50;3.28;;;21.30;60.40;;;;;;5045345;28;20028;-73
2023/05/22 07:04:33;;;;;;;8.50;3.45;;;21.30;60.00;;;;;;5049213;28;20048;-73
2023/05/22 07:06:59;;;;;;;5.38;3.30;;;21.60;59.30;;;;;;5047534;28;20029;-73
2023/05/22 07:09:25;;;;;;;5.05;2.95;;;21.70;59.30;;;;;;5052337;28;20601;-73
2023/05/22 07:11:51;;;;;;;5.28;3.47;;;21.90;60.50;;;;;;5049836;28;20036;-73
2023/05/22 07:14:16;;;;;;;6.75;3.42;;;21.90;58.20;;;;;;5052648;28;20029;-73
2023/05/22 07:16:42;;;;;;;9.23;3.17;;;21.60;57.50;;;;;;5049929;28;20021;-73
2023/05/22 07:19:09;;;;;;;6.57;2.70;;;21.80;58.80;;;;;;5047318;28;20041;-73
2023/05/22 07:21:35;;;;;;;4.70;3.03;;;22.00;59.40;;;;;;5048882;28;20013;-73
2023/05/22 07:24:06;;;;;;;5.85;3.45;;;22.00;59.90;;;;;;5053666;28;20032;-72
2023/05/22 07:26:35;;;;;;;5.00;3.22;;;21.90;57.40;;;;;;5050913;28;20051;-73
2023/05/22 07:29:01;;;;;;;7.32;3.15;;;22.00;59.60;;;;;;5042934;28;20099;-73
2023/05/22 07:31:27;;;;;;;7.63;3.30;;;22.30;61.40;;;;;;5046701;28;20108;-73
2023/05/22 07:33:52;;;;;;;6.25;3.00;;;22.20;57.00;;;;;;5050879;28;20112;-74
2023/05/22 07:36:19;;;;;;;7.18;3.08;;;22.30;59.40;;;;;;5047034;28;20468;-73
2023/05/22 07:38:45;;;;;;;7.85;3.15;;;22.00;58.50;;;;;;5048436;28;20469;-73
2023/05/22 07:41:10;;;;;;;5.45;3.25;;;22.00;57.70;;;;;;5049471;28;20017;-73
2023/05/22 07:43:36;;;;;;;7.60;3.28;;;21.90;57.10;;;;;;5053560;28;20025;-73
2023/05/22 07:46:01;;;;;;;4.53;2.97;;;22.20;59.90;;;;;;5046962;28;20025;-73
2023/05/22 07:48:27;;;;;;;8.38;3.58;;;22.20;57.40;;;;;;5054433;28;20083;-73
2023/05/22 07:50:53;;;;;;;7.15;3.20;;;22.30;60.00;;;;;;5045807;28;20147;-73
2023/05/22 07:53:18;;;;;;;5.65;3.05;;;22.50;58.00;;;;;;5045515;28;20029;-73
2023/05/22 07:55:44;;;;;;;5.65;3.03;;;22.70;56.40;;;;;;5042747;28;20354;-73
2023/05/22 07:58:10;;;;;;;5.57;3.08;;;23.00;58.40;;;;;;5046032;28;20061;-73
2023/05/22 08:00:35;;;;;;;6.45;3.25;;;22.80;55.40;;;;;;5047045;28;20530;-73
2023/05/22 08:03:01;;;;;;;5.13;2.95;;;23.20;56.90;;;;;;5052286;28;20029;-73
2023/05/22 08:05:26;;;;;;;6.63;3.75;;;23.50;58.20;;;;;;5045547;28;20025;-73
2023/05/22 08:07:52;;;;;;;19.48;8.25;;;23.70;54.50;;;;;;5044716;28;20056;-73
2023/05/22 08:10:18;;;;;;;3.75;2.60;;;24.00;58.80;;;;;;5046781;28;20033;-73
2023/05/22 08:12:43;;;;;;;7.40;3.80;;;23.80;53.20;;;;;;5053260;28;20028;-73
2023/05/22 08:15:10;;;;;;;7.85;3.60;;;24.00;53.50;;;;;;5041464;28;20063;-73
2023/05/22 08:17:35;;;;;;;9.00;3.65;;;24.20;52.30;;;;;;5047546;28;20067;-73
2023/05/22 08:20:01;;;;;;;9.82;3.80;;;24.20;54.70;;;;;;5050080;28;20028;-73
2023/05/22 08:22:28;;;;;;;10.25;3.90;;;24.50;53.40;;;;;;5052334;28;20029;-73
2023/05/22 08:24:54;;;;;;;6.93;3.70;;;24.80;53.10;;;;;;5047357;28;20048;-74
2023/05/22 08:27:19;;;;;;;7.72;3.10;;;24.80;52.50;;;;;;5047898;28;20462;-73
2023/05/22 08:29:44;;;;;;;7.70;3.17;;;25.10;51.80;;;;;;5040795;28;20051;-73
2023/05/22 08:32:10;;;;;;;6.80;2.83;;;25.50;50.30;;;;;;5050676;28;20499;-73
2023/05/22 08:34:35;;;;;;;5.47;2.92;;;25.00;48.70;;;;;;5041634;28;20029;-73
2023/05/22 08:37:01;;;;;;;6.38;3.03;;;25.20;51.40;;;;;;5061123;28;20044;-73
2023/05/22 08:39:27;;;;;;;5.35;3.00;;;25.10;51.30;;;;;;5042228;28;20035;-73
2023/05/22 08:41:53;;;;;;;7.03;3.10;;;25.40;49.70;;;;;;5048996;28;20095;-74
2023/05/22 08:44:19;;;;;;;5.18;2.80;;;25.60;51.50;;;;;;5044347;28;20026;-74
2023/05/22 08:46:45;;;;;;;6.15;3.42;;;26.00;51.40;;;;;;5056903;28;20546;-73
2023/05/22 08:49:12;;;;;;;6.13;2.75;;;26.00;48.00;;;;;;5042476;28;20017;-73
2023/05/22 08:51:41;;;;;;;9.05;2.88;;;26.00;49.50;;;;;;5048366;28;20029;-73
2023/05/22 08:54:07;;;;;;;6.78;3.00;;;26.00;47.20;;;;;;5047952;28;20033;-73
2023/05/22 08:56:37;;;;;;;5.15;2.40;;;26.30;47.30;;;;;;5047691;28;20028;-73
2023/05/22 08:59:04;;;;;;;7.07;2.70;;;26.50;48.60;;;;;;5050840;28;20032;-74
2023/05/22 09:01:31;;;;;;;6.53;2.88;;;27.00;50.20;;;;;;5042939;28;20112;-73
2023/05/22 09:04:00;;;;;;;7.30;3.15;;;26.90;45.00;;;;;;5048174;28;20041;-74
2023/05/22 09:06:30;;;;;;;3.67;2.63;;;27.30;47.30;;;;;;5042855;28;20043;-73
2023/05/22 09:08:56;;;;;;;6.22;2.63;;;26.70;44.10;;;;;;5042063;28;20628;-74
2023/05/22 09:11:22;;;;;;;7.97;2.80;;;26.40;46.50;;;;;;5049952;28;20021;-73
2023/05/22 09:13:50;;;;;;;6.45;3.10;;;26.30;44.50;;;;;;5043113;28;20088;-74
2023/05/22 09:16:16;;;;;;;4.45;2.38;;;26.70;45.60;;;;;;5047166;28;20492;-73
2023/05/22 09:18:41;;;;;;;7.78;2.85;;;27.00;46.70;;;;;;5045141;28;20457;-74
2023/05/22 09:21:09;;;;;;;6.25;2.88;;;26.80;44.00;;;;;;5041576;28;20053;-74
2023/05/22 09:23:34;;;;;;;6.45;2.90;;;26.80;44.90;;;;;;5043293;28;20116;-74
2023/05/22 09:26:01;;;;;;;5.25;2.40;;;27.20;44.10;;;;;;5053721;28;20143;-73
2023/05/22 09:28:31;;;;;;;5.60;2.97;;;26.60;43.80;;;;;;5040259;28;20037;-74
2023/05/22 09:30:57;;;;;;;6.80;3.00;;;27.20;45.10;;;;;;5054987;28;20036;-74
2023/05/22 09:33:22;;;;;;;6.63;2.63;;;27.00;43.60;;;;;;5050399;28;20115;-73
2023/05/22 09:35:51;;;;;;;3.17;2.20;;;26.70;44.60;;;;;;5042865;28;20112;-73
2023/05/22 09:38:16;;;;;;;8.18;2.67;;;26.80;43.70;;;;;;5045310;28;20404;-73
2023/05/22 09:40:42;;;;;;;5.82;2.72;;;27.50;45.10;;;;;;5048712;28;20025;-74
2023/05/22 09:43:16;;;;;;;4.72;2.80;;;27.60;43.50;;;;;;5047697;28;20037;-74
2023/05/22 09:45:41;;;;;;;8.48;2.90;;;28.00;43.10;;;;;;5045077;28;20554;-74
2023/05/22 09:48:08;;;;;;;6.03;2.95;;;28.30;44.00;;;;;;5048229;28;20120;-74
2023/05/22 09:50:34;;;;;;;7.78;2.70;;;28.50;42.80;;;;;;5044206;28;20047;-74
2023/05/22 09:53:02;;;;;;;6.68;2.70;;;28.50;44.20;;;;;;5041683;28;20450;-74
2023/05/22 09:55:28;;;;;;;6.25;3.10;;;28.80;42.20;;;;;;5056250;28;20019;-74
2023/05/22 09:57:55;;;;;;;5.88;2.45;;;27.90;41.70;;;;;;5037341;28;20029;-74
2023/05/22 10:00:22;;;;;;;6.82;2.30;;;28.50;42.80;;;;;;5051636;28;20586;-74
2023/05/22 10:03:02;;;;;;;8.35;2.50;;;28.30;41.00;;;;;;5033488;28;20025;-74
2023/05/22 10:05:30;;;;;;;6.93;2.70;;;29.10;42.90;;;;;;5044600;28;20032;-76
2023/05/22 10:08:01;;;;;;;8.35;3.08;;;29.40;39.00;;;;;;5047208;28;20033;-76
2023/05/22 10:10:27;;;;;;;6.75;2.40;;;29.40;40.50;;;;;;5039519;28;20070;-75
2023/05/22 10:12:56;;;;;;;5.63;2.70;;;29.10;41.80;;;;;;5052815;28;20052;-77
2023/05/22 10:15:22;;;;;;;5.38;2.35;;;28.40;39.60;;;;;;5046002;28;20543;-76
2023/05/22 10:17:48;;;;;;;5.90;2.25;;;27.90;40.70;;;;;;5043929;28;20028;-76
2023/05/22 10:20:18;;;;;;;5.43;2.63;;;27.50;42.30;;;;;;5059553;28;20052;-77
2023/05/22 10:22:46;;;;;;;5.85;2.70;;;28.00;42.70;;;;;;5042099;28;20532;-73
2023/05/22 10:25:12;;;;;;;3.72;2.53;;;27.60;40.70;;;;;;5041702;28;20050;-73
2023/05/22 10:27:38;;;;;;;5.25;2.78;;;27.70;42.30;;;;;;5043010;28;20037;-73
2023/05/22 10:30:17;;;;;;;6.43;2.70;;;27.90;44.00;;;;;;5059667;28;20527;-73
2023/05/22 10:33:04;;;;;;;3.33;2.45;;;28.50;42.50;;;;;;5046452;28;20481;-74
2023/05/22 10:35:47;;;;;;;7.65;2.55;;;28.30;39.80;;;;;;5052054;28;20028;-74
2023/05/22 10:38:24;;;;;;;3.78;2.53;;;28.50;40.40;;;;;;5041741;28;20432;-74
2023/05/22 10:40:50;;;;;;;5.28;2.83;;;28.20;41.80;;;;;;5050432;28;20017;-73
2023/05/22 10:43:15;;;;;;;4.97;2.67;;;27.40;40.90;;;;;;5045862;28;20077;-73
2023/05/22 10:45:45;;;;;;;6.22;2.40;;;27.80;42.20;;;;;;5046271;28;20564;-73
2023/05/22 10:48:13;;;;;;;5.32;2.72;;;27.90;41.60;;;;;;5050378;28;20430;-73
2023/05/22 10:50:48;;;;;;;6.05;2.50;;;27.80;41.30;;;;;;5051773;28;20418;-73
2023/05/22 10:53:30;;;;;;;4.72;2.65;;;27.70;40.70;;;;;;5048777;28;20021;-74
2023/05/22 10:55:57;;;;;;;3.97;2.60;;;27.70;41.70;;;;;;5044651;28;20036;-74
2023/05/22 10:58:30;;;;;;;5.32;2.55;;;28.10;43.20;;;;;;5047170;28;20108;-74
2023/05/22 11:01:17;;;;;;;4.35;2.83;;;28.40;43.60;;;;;;5045474;28;20029;-74
2023/05/22 11:03:55;;;;;;;5.25;3.15;;;28.20;40.80;;;;;;5040479;28;20024;-73
2023/05/22 11:06:34;;;;;;;5.32;2.40;;;28.70;42.30;;;;;;5044350;28;20037;-73
2023/05/22 11:09:40;;;;;;;4.80;2.80;;;28.80;40.00;;;;;;5059207;28;20420;-74
2023/05/22 11:12:16;;;;;;;5.38;2.42;;;28.80;39.60;;;;;;5044129;28;20159;-74
2023/05/22 11:15:05;;;;;;;8.88;2.72;;;28.10;39.60;;;;;;5044574;28;20378;-74
2023/05/22 11:17:43;;;;;;;5.57;2.53;;;28.50;39.80;;;;;;5051061;28;20025;-74
2023/05/22 11:20:21;;;;;;;4.93;2.58;;;28.60;41.00;;;;;;5044550;28;20029;-74
2023/05/22 11:22:59;;;;;;;7.20;2.65;;;28.80;43.90;;;;;;5046568;28;20025;-74
2023/05/22 11:25:26;;;;;;;3.75;2.65;;;28.60;42.50;;;;;;5049817;28;20140;-74
2023/05/22 11:27:53;;;;;;;5.65;2.28;;;28.50;42.00;;;;;;5051513;28;20037;-73
2023/05/22 11:30:23;;;;;;;8.80;2.75;;;28.70;40.90;;;;;;5048884;28;20056;-74
2023/05/22 11:32:49;;;;;;;6.63;2.20;;;28.90;38.90;;;;;;5047799;28;20163;-74
2023/05/22 11:35:19;;;;;;;6.20;2.40;;;28.90;39.10;;;;;;5037038;28;20452;-74
2023/05/22 11:37:46;;;;;;;6.00;2.42;;;29.80;40.40;;;;;;5045479;28;20035;-74
2023/05/22 11:40:15;;;;;;;5.20;2.88;;;29.30;38.50;;;;;;5050864;28;20028;-74
2023/05/22 11:42:41;;;;;;;8.20;2.95;;;28.90;39.30;;;;;;5037091;28;20394;-74
2023/05/22 11:45:07;;;;;;;5.60;2.88;;;29.70;39.30;;;;;;5049874;28;20021;-74
2023/05/22 11:47:32;;;;;;;7.25;2.65;;;30.00;38.50;;;;;;5048959;28;20361;-74
2023/05/22 11:49:58;;;;;;;7.75;2.60;;;29.50;39.50;;;;;;5046879;28;20033;-74
2023/05/22 11:52:24;;;;;;;7.03;2.70;;;29.40;40.30;;;;;;5044216;28;20036;-73
2023/05/22 11:54:53;;;;;;;6.63;2.80;;;28.40;39.00;;;;;;5057503;28;20024;-73
2023/05/22 11:57:18;;;;;;;5.65;2.63;;;28.50;39.00;;;;;;5047479;28;20415;-73
2023/05/22 11:59:45;;;;;;;6.85;2.90;;;28.40;40.40;;;;;;5048926;28;20116;-74
2023/05/22 12:02:12;;;;;;;6.30;3.10;;;28.50;39.10;;;;;;5055299;28;20501;-73
2023/05/22 12:04:37;;;;;;;7.25;2.70;;;29.50;40.60;;;;;;5038615;28;20052;-74
2023/05/22 12:07:03;;;;;;;6.80;3.05;;;30.50;37.50;;;;;;5036084;28;20442;-74
2023/05/22 12:09:29;;;;;;;5.22;2.47;;;31.30;37.10;;;;;;5041406;28;20048;-74
2023/05/22 12:11:58;;;;;;;5.97;2.97;;;31.90;35.50;;;;;;5043023;28;20517;-74
2023/05/22 12:14:26;;;;;;;10.77;2.95;;;31.00;36.20;;;;;;5039123;28;20484;-74
2023/05/22 12:16:52;;;;;;;4.70;2.65;;;32.10;35.30;;;;;;5037413;28;20032;-74
2023/05/22 12:19:17;;;;;;;5.55;2.55;;;31.00;34.00;;;;;;5042146;28;20103;-74
2023/05/22 12:21:44;;;;;;;9.35;3.17;;;31.00;34.90;;;;;;5046993;28;20127;-75
2023/05/22 12:24:10;;;;;;;5.55;2.67;;;29.80;36.10;;;;;;5048385;28;20028;-75
2023/05/22 12:26:36;;;;;;;6.07;2.80;;;30.00;38.30;;;;;;5041753;28;20487;-75
2023/05/22 12:29:03;;;;;;;7.30;2.78;;;29.80;37.20;;;;;;5040276;28;20028;-75
2023/05/22 12:31:35;;;;;;;6.40;3.00;;;29.70;37.70;;;;;;5043484;28;20032;-75
2023/05/22 12:34:05;;;;;;;8.10;3.22;;;29.60;39.10;;;;;;5047530;28;20537;-76
2023/05/22 12:36:38;;;;;;;3.45;2.38;;;29.60;39.60;;;;;;5038051;28;20442;-75
2023/05/22 12:39:17;;;;;;;5.63;2.65;;;29.50;40.20;;;;;;5045482;28;20028;-73
2023/05/22 12:41:43;;;;;;;6.57;2.80;;;29.10;39.40;;;;;;5040671;28;20021;-79
2023/05/22 12:44:09;;;;;;;4.78;2.80;;;29.60;40.20;;;;;;5044615;28;20025;-73
2023/05/22 12:46:35;;;;;;;5.90;3.20;;;29.30;38.50;;;;;;5042384;28;20484;-73